Time;durP1;ratioP1;P1;durP2;ratioP2;P2;SDS_P1;SDS_P2;PMS_P1;PMS_P2;Temp;Humidity;BMP_temperature;BMP_pressure;BME280_temperature;BME280_humidity;BME280_pressure;Samples;Min_cycle;Max_cycle;Signal;HPM_P1;HPM_P2
2023/07/23 00:02:24;;;;;;;0.10;0.10;;;17.20;99.90;;;;;;5095144;28;20040;-81
2023/07/23 00:04:50;;;;;;;3.45;1.42;;;17.20;99.90;;;;;;5095471;28;20028;-81
2023/07/23 00:07:16;;;;;;;0.60;0.60;;;17.20;99.90;;;;;;5095814;28;20031;-81
2023/07/23 00:09:41;;;;;;;0.00;0.00;;;17.20;99.90;;;;;;5086895;28;20057;-81
2023/07/23 00:12:07;;;;;;;0.52;0.52;;;17.30;99.90;;;;;;5072202;28;20031;-80
2023/07/23 00:14:33;;;;;;;0.57;0.57;;;17.40;99.90;;;;;;5094513;28;20039;-81
2023/07/23 00:16:59;;;;;;;0.45;0.43;;;17.30;99.90;;;;;;5095665;28;20020;-80
2023/07/23 00:19:24;;;;;;;0.10;0.10;;;17.30;99.90;;;;;;5094958;28;20479;-81
2023/07/23 00:21:50;;;;;;;0.90;0.68;;;17.20;99.90;;;;;;5095604;28;20028;-80
2023/07/23 00:24:19;;;;;;;0.10;0.10;;;17.20;99.90;;;;;;5093857;28;20028;-79
2023/07/23 00:26:45;;;;;;;0.30;0.30;;;17.30;99.90;;;;;;5095562;28;20388;-81
2023/07/23 00:29:11;;;;;;;0.90;0.65;;;17.30;99.90;;;;;;5095172;28;20020;-79
2023/07/23 00:31:37;;;;;;;0.00;0.00;;;17.50;99.90;;;;;;5095363;28;20032;-81
2023/07/23 00:34:03;;;;;;;0.00;0.00;;;17.50;99.90;;;;;;5094131;28;20068;-81
2023/07/23 00:36:29;;;;;;;1.17;1.08;;;17.50;99.90;;;;;;5093836;28;20016;-81
2023/07/23 00:38:55;;;;;;;1.20;1.10;;;17.40;99.90;;;;;;5095211;28;20043;-80
2023/07/23 00:41:21;;;;;;;0.43;0.43;;;17.30;99.90;;;;;;5093583;28;20020;-80
2023/07/23 00:43:46;;;;;;;0.08;0.08;;;17.40;99.90;;;;;;5095049;28;20039;-81
2023/07/23 00:46:13;;;;;;;8.55;1.80;;;17.20;99.90;;;;;;5093673;28;20469;-79
2023/07/23 00:48:39;;;;;;;2.80;1.25;;;17.10;99.90;;;;;;5093434;28;20078;-81
2023/07/23 00:51:05;;;;;;;1.85;0.38;;;17.20;99.90;;;;;;5093797;28;20032;-81
2023/07/23 00:53:31;;;;;;;0.10;0.10;;;17.20;99.90;;;;;;5094522;28;20122;-80
2023/07/23 00:55:59;;;;;;;0.28;0.22;;;17.30;99.90;;;;;;5095068;28;20040;-80
2023/07/23 00:58:24;;;;;;;0.10;0.10;;;17.20;99.90;;;;;;5094571;28;20016;-75
2023/07/23 01:00:51;;;;;;;1.08;0.90;;;17.20;99.90;;;;;;5093359;28;20035;-74
2023/07/23 01:03:17;;;;;;;0.35;0.35;;;17.20;99.90;;;;;;5089343;28;20032;-74
2023/07/23 01:05:44;;;;;;;1.77;1.08;;;17.00;99.90;;;;;;5094693;28;20511;-74
2023/07/23 01:08:11;;;;;;;0.90;0.47;;;17.00;99.90;;;;;;5094646;28;20031;-73
2023/07/23 01:10:37;;;;;;;1.70;1.42;;;17.10;99.90;;;;;;5078954;28;20024;-74
2023/07/23 01:13:03;;;;;;;0.30;0.30;;;17.00;99.90;;;;;;5094542;28;20031;-74
2023/07/23 01:15:30;;;;;;;3.03;0.80;;;17.10;99.90;;;;;;5094146;28;20032;-74
2023/07/23 01:17:59;;;;;;;1.70;1.60;;;17.20;99.90;;;;;;5091591;28;20380;-74
2023/07/23 01:20:24;;;;;;;0.73;0.73;;;17.20;99.90;;;;;;5091577;28;20024;-75
2023/07/23 01:22:50;;;;;;;13.00;1.45;;;17.30;99.90;;;;;;5083952;28;20046;-74
2023/07/23 01:25:16;;;;;;;0.20;0.20;;;17.30;99.90;;;;;;5072255;28;20579;-74
2023/07/23 01:27:42;;;;;;;0.28;0.28;;;17.30;99.90;;;;;;5076961;28;20032;-74
2023/07/23 01:30:08;;;;;;;0.17;0.17;;;17.30;99.90;;;;;;5092459;28;20020;-74
2023/07/23 01:32:35;;;;;;;1.50;0.88;;;17.30;99.90;;;;;;5094209;28;20047;-74
2023/07/23 01:35:09;;;;;;;13.48;1.42;;;17.30;99.90;;;;;;5093973;28;20039;-74
2023/07/23 01:37:36;;;;;;;0.35;0.20;;;17.30;99.90;;;;;;5093896;28;20020;-74
2023/07/23 01:40:02;;;;;;;0.98;0.98;;;17.30;99.90;;;;;;5082668;28;20020;-74
2023/07/23 01:42:28;;;;;;;16.80;0.65;;;17.40;99.90;;;;;;5091280;28;20383;-76
2023/07/23 01:44:55;;;;;;;0.63;0.50;;;17.30;99.90;;;;;;5092641;28;20012;-74
2023/07/23 01:47:20;;;;;;;0.35;0.35;;;17.40;99.90;;;;;;5092367;28;20396;-74
2023/07/23 01:49:46;;;;;;;0.00;0.00;;;17.50;99.90;;;;;;5093857;28;20376;-74
2023/07/23 01:52:12;;;;;;;1.50;0.85;;;17.40;99.90;;;;;;5093685;28;20456;-74
2023/07/23 01:54:38;;;;;;;1.95;0.68;;;17.40;99.90;;;;;;5093652;28;20030;-74
2023/07/23 01:57:04;;;;;;;0.40;0.35;;;17.30;99.90;;;;;;5081044;28;20123;-74
2023/07/23 01:59:30;;;;;;;0.05;0.05;;;17.30;99.90;;;;;;5089248;28;20024;-74
2023/07/23 02:01:56;;;;;;;0.10;0.10;;;17.30;99.90;;;;;;5090593;28;20559;-74
2023/07/23 02:04:22;;;;;;;0.47;0.45;;;17.30;99.90;;;;;;5089851;28;20031;-80
2023/07/23 02:06:47;;;;;;;1.08;0.80;;;17.20;99.90;;;;;;5092583;28;20044;-80
2023/07/23 02:09:13;;;;;;;0.55;0.55;;;17.30;99.90;;;;;;5092165;28;20027;-80
2023/07/23 02:11:39;;;;;;;0.55;0.50;;;17.40;99.90;;;;;;5091781;28;20038;-81
2023/07/23 02:14:05;;;;;;;1.75;0.75;;;17.40;99.90;;;;;;5092631;28;20032;-79
2023/07/23 02:16:31;;;;;;;1.02;0.28;;;17.30;99.90;;;;;;5091070;28;20063;-80
2023/07/23 02:18:57;;;;;;;6.45;1.88;;;17.40;99.90;;;;;;5092088;28;20027;-81
2023/07/23 02:21:23;;;;;;;0.77;0.50;;;17.50;99.90;;;;;;5091620;28;20035;-80
2023/07/23 02:23:51;;;;;;;4.53;1.13;;;17.60;99.90;;;;;;5093303;28;20054;-79
2023/07/23 02:26:16;;;;;;;0.93;0.68;;;17.40;99.90;;;;;;5091895;28;20132;-78
2023/07/23 02:28:43;;;;;;;3.05;1.70;;;17.30;99.90;;;;;;5091529;28;20061;-81
2023/07/23 02:31:09;;;;;;;2.25;1.30;;;17.40;99.90;;;;;;5078928;28;20059;-74
2023/07/23 02:33:35;;;;;;;0.77;0.50;;;17.40;99.90;;;;;;5089136;28;20468;-74
2023/07/23 02:36:02;;;;;;;1.55;1.27;;;17.40;99.90;;;;;;5091608;28;20115;-74
2023/07/23 02:38:28;;;;;;;0.10;0.10;;;17.40;99.90;;;;;;5091477;28;20166;-74
2023/07/23 02:40:58;;;;;;;0.30;0.30;;;17.50;99.90;;;;;;5091324;28;20016;-74
2023/07/23 02:43:24;;;;;;;1.38;0.45;;;17.50;99.90;;;;;;5074256;28;20103;-75
2023/07/23 02:45:50;;;;;;;0.40;0.40;;;17.30;99.90;;;;;;5092709;28;20039;-74
2023/07/23 02:48:16;;;;;;;3.03;1.15;;;17.40;99.90;;;;;;5092878;28;20085;-73
2023/07/23 02:50:42;;;;;;;4.95;1.35;;;17.40;99.90;;;;;;5092705;28;20016;-74
2023/07/23 02:53:08;;;;;;;3.63;1.13;;;17.40;99.90;;;;;;5091080;28;20039;-74
2023/07/23 02:55:34;;;;;;;1.05;0.95;;;17.40;99.90;;;;;;5092793;28;20055;-74
2023/07/23 02:58:03;;;;;;;2.17;0.93;;;17.40;99.90;;;;;;5074380;28;20111;-74
2023/07/23 03:00:29;;;;;;;4.90;1.40;;;17.50;99.90;;;;;;5092365;28;20384;-74
2023/07/23 03:02:56;;;;;;;0.80;0.77;;;17.40;99.90;;;;;;5090996;28;20063;-74
2023/07/23 03:05:24;;;;;;;1.17;1.00;;;17.40;99.90;;;;;;5094256;28;20469;-73
2023/07/23 03:07:51;;;;;;;2.75;1.13;;;17.40;99.90;;;;;;5096542;28;20028;-74
2023/07/23 03:10:17;;;;;;;0.45;0.45;;;17.50;99.90;;;;;;5095383;28;20031;-74
2023/07/23 03:12:43;;;;;;;4.20;1.75;;;17.50;99.90;;;;;;5094946;28;20028;-74
2023/07/23 03:15:09;;;;;;;4.60;1.23;;;17.50;99.90;;;;;;5095380;28;20059;-74
2023/07/23 03:17:35;;;;;;;2.10;1.45;;;17.50;99.90;;;;;;5096213;28;20082;-80
2023/07/23 03:20:03;;;;;;;0.75;0.75;;;17.50;99.90;;;;;;5096705;28;20485;-80
2023/07/23 03:22:30;;;;;;;0.55;0.55;;;17.40;99.90;;;;;;5096373;28;20043;-79
2023/07/23 03:24:56;;;;;;;2.00;1.13;;;17.40;99.90;;;;;;5096189;28;20016;-80
2023/07/23 03:27:21;;;;;;;0.10;0.10;;;17.30;99.90;;;;;;5095618;28;20484;-79
2023/07/23 03:29:47;;;;;;;0.30;0.30;;;17.30;99.90;;;;;;5095287;28;20028;-75
2023/07/23 03:32:13;;;;;;;2.53;1.65;;;17.40;99.90;;;;;;5082002;28;20524;-74
2023/07/23 03:34:39;;;;;;;4.63;1.40;;;17.40;99.90;;;;;;5096102;28;20032;-76
2023/07/23 03:37:06;;;;;;;1.27;1.17;;;17.40;99.90;;;;;;5095678;28;20119;-74
2023/07/23 03:39:31;;;;;;;1.50;0.85;;;17.50;99.90;;;;;;5096260;28;20027;-73
2023/07/23 03:41:57;;;;;;;6.50;0.95;;;17.50;99.90;;;;;;5095609;28;20036;-74
2023/07/23 03:44:23;;;;;;;1.27;0.57;;;17.70;99.90;;;;;;5095838;28;20032;-74
2023/07/23 03:47:14;;;;;;;0.10;0.10;;;17.80;99.90;;;;;;5094309;28;20046;-74
2023/07/23 03:49:40;;;;;;;0.88;0.80;;;17.60;99.90;;;;;;5095145;28;20491;-74
2023/07/23 03:52:08;;;;;;;0.22;0.22;;;17.50;99.90;;;;;;5095647;28;20047;-75
2023/07/23 03:54:35;;;;;;;0.10;0.10;;;17.50;99.90;;;;;;5094407;28;20106;-74
2023/07/23 03:57:01;;;;;;;6.70;0.65;;;17.60;99.90;;;;;;5093845;28;20012;-75
2023/07/23 03:59:38;;;;;;;0.80;0.80;;;17.50;99.90;;;;;;5094396;28;20027;-73
2023/07/23 04:02:05;;;;;;;0.80;0.73;;;17.60;99.90;;;;;;5076135;28;20063;-74
2023/07/23 04:04:31;;;;;;;2.13;1.20;;;17.70;99.90;;;;;;5095446;28;20063;-73
2023/07/23 04:06:56;;;;;;;3.08;1.05;;;17.50;99.90;;;;;;5094678;28;20065;-73
2023/07/23 04:09:22;;;;;;;0.20;0.20;;;17.40;99.90;;;;;;5093744;28;20031;-75
2023/07/23 04:11:48;;;;;;;5.97;1.60;;;17.60;99.90;;;;;;5094944;28;20024;-73
2023/07/23 04:14:14;;;;;;;9.07;0.85;;;17.70;99.90;;;;;;5094730;28;20028;-74
2023/07/23 04:16:39;;;;;;;2.83;1.85;;;17.70;99.90;;;;;;5094288;28;20024;-73
2023/07/23 04:19:05;;;;;;;1.98;1.15;;;17.50;99.90;;;;;;5094292;28;20016;-74
2023/07/23 04:21:31;;;;;;;1.73;1.25;;;17.40;99.90;;;;;;5095472;28;20020;-73
2023/07/23 04:24:00;;;;;;;0.10;0.10;;;17.40;99.90;;;;;;5095381;28;20024;-73
2023/07/23 04:26:28;;;;;;;1.20;1.10;;;17.50;99.90;;;;;;5095027;28;20056;-73
2023/07/23 04:28:54;;;;;;;1.60;1.00;;;17.40;99.90;;;;;;5093952;28;20495;-74
2023/07/23 04:31:20;;;;;;;2.92;1.33;;;17.60;99.90;;;;;;5083131;28;20043;-74
2023/07/23 04:33:46;;;;;;;1.48;0.30;;;17.60;99.90;;;;;;5092574;28;20024;-74
2023/07/23 04:36:13;;;;;;;1.23;0.77;;;17.50;99.90;;;;;;5095645;28;20407;-74
2023/07/23 04:38:41;;;;;;;3.15;1.83;;;17.50;99.90;;;;;;5093373;28;20036;-74
2023/07/23 04:41:08;;;;;;;4.43;1.77;;;17.50;99.90;;;;;;5094012;28;20032;-74
2023/07/23 04:43:35;;;;;;;1.65;0.98;;;17.40;99.90;;;;;;5094617;28;20495;-74
2023/07/23 04:46:01;;;;;;;1.30;1.15;;;17.40;99.90;;;;;;5093911;28;20107;-73
2023/07/23 04:48:26;;;;;;;0.40;0.40;;;17.40;99.90;;;;;;5093958;28;20123;-74
2023/07/23 04:50:56;;;;;;;1.25;0.98;;;17.60;99.90;;;;;;5094793;28;20019;-75
2023/07/23 04:53:23;;;;;;;1.38;0.93;;;17.40;99.90;;;;;;5094371;28;20032;-74
2023/07/23 04:55:53;;;;;;;1.50;1.02;;;17.20;99.90;;;;;;5094485;28;20058;-79
2023/07/23 04:58:20;;;;;;;2.47;1.67;;;17.10;99.90;;;;;;5094389;28;20422;-80
2023/07/23 05:00:46;;;;;;;3.90;1.65;;;17.00;99.90;;;;;;5093105;28;20028;-80
2023/07/23 05:03:11;;;;;;;1.85;1.75;;;16.80;99.90;;;;;;5094600;28;20115;-79
2023/07/23 05:05:42;;;;;;;1.35;1.13;;;16.80;99.90;;;;;;5094283;28;20059;-80
2023/07/23 05:08:08;;;;;;;2.25;1.00;;;16.60;99.90;;;;;;5094143;28;20040;-79
2023/07/23 05:10:34;;;;;;;1.75;1.05;;;16.60;99.90;;;;;;5094462;28;20043;-78
2023/07/23 05:13:00;;;;;;;1.17;0.80;;;16.70;99.90;;;;;;5094153;28;20028;-80
2023/07/23 05:15:26;;;;;;;1.25;0.73;;;16.80;99.90;;;;;;5093849;28;20490;-80
2023/07/23 05:17:52;;;;;;;0.82;0.73;;;16.80;99.90;;;;;;5092929;28;20052;-80
2023/07/23 05:20:18;;;;;;;4.07;1.40;;;16.40;99.90;;;;;;5092910;28;20392;-80
2023/07/23 05:22:44;;;;;;;0.28;0.25;;;16.30;99.90;;;;;;5093895;28;20031;-79
2023/07/23 05:25:10;;;;;;;0.75;0.75;;;16.30;99.90;;;;;;5094690;28;20035;-80
2023/07/23 05:27:36;;;;;;;0.30;0.30;;;16.30;99.90;;;;;;5092995;28;20035;-80
2023/07/23 05:30:03;;;;;;;0.93;0.65;;;16.20;99.90;;;;;;5092367;28;20361;-80
2023/07/23 05:32:29;;;;;;;1.17;1.05;;;16.30;99.90;;;;;;5080643;28;20434;-80
2023/07/23 05:34:55;;;;;;;2.72;2.15;;;16.20;99.90;;;;;;5086385;28;20037;-77
2023/07/23 05:37:20;;;;;;;0.38;0.38;;;16.20;99.90;;;;;;5093250;28;20103;-73
2023/07/23 05:39:48;;;;;;;5.03;2.17;;;16.30;99.90;;;;;;5093144;28;20024;-74
2023/07/23 05:42:13;;;;;;;2.78;2.15;;;16.40;99.90;;;;;;5092597;28;20028;-74
2023/07/23 05:44:39;;;;;;;2.33;1.33;;;16.40;99.90;;;;;;5093660;28;20138;-73
2023/07/23 05:47:05;;;;;;;8.68;1.70;;;16.30;99.90;;;;;;5093543;28;20097;-73
2023/07/23 05:49:31;;;;;;;0.90;0.45;;;16.30;99.90;;;;;;5093942;28;20073;-73
2023/07/23 05:52:00;;;;;;;8.88;1.23;;;16.30;99.90;;;;;;5092060;28;20024;-73
2023/07/23 05:54:26;;;;;;;3.10;1.73;;;16.40;99.90;;;;;;5092912;28;20120;-73
2023/07/23 05:56:52;;;;;;;3.20;0.75;;;16.50;99.90;;;;;;5093268;28;20035;-74
2023/07/23 05:59:18;;;;;;;3.30;1.95;;;16.50;99.90;;;;;;5093237;28;20020;-73
2023/07/23 06:01:44;;;;;;;0.93;0.65;;;16.50;99.90;;;;;;5092899;28;20042;-74
2023/07/23 06:04:10;;;;;;;1.13;0.77;;;16.50;99.90;;;;;;5092995;28;20119;-73
2023/07/23 06:06:36;;;;;;;2.50;1.80;;;16.60;99.90;;;;;;5092752;28;20114;-73
2023/07/23 06:09:03;;;;;;;11.32;2.63;;;16.60;99.90;;;;;;5091373;28;20044;-74
2023/07/23 06:11:30;;;;;;;0.60;0.55;;;16.60;99.90;;;;;;5092258;28;20052;-74
2023/07/23 06:13:56;;;;;;;4.32;2.15;;;16.60;99.90;;;;;;5091990;28;20028;-74
2023/07/23 06:16:22;;;;;;;1.50;1.40;;;16.50;99.90;;;;;;5093138;28;20476;-73
2023/07/23 06:18:47;;;;;;;1.55;1.23;;;16.40;99.90;;;;;;5093041;28;20039;-73
2023/07/23 06:21:13;;;;;;;6.78;2.35;;;16.40;99.90;;;;;;5092741;28;20024;-73
2023/07/23 06:23:39;;;;;;;6.45;2.50;;;16.30;99.90;;;;;;5093082;28;20054;-73
2023/07/23 06:26:04;;;;;;;2.70;1.70;;;16.20;99.90;;;;;;5093006;28;20423;-73
2023/07/23 06:28:31;;;;;;;2.65;1.67;;;16.20;99.90;;;;;;5093060;28;20039;-73
2023/07/23 06:30:57;;;;;;;3.22;2.08;;;16.20;99.90;;;;;;5082634;28;20541;-72
2023/07/23 06:33:23;;;;;;;4.15;2.47;;;16.10;99.90;;;;;;5087078;28;20038;-71
2023/07/23 06:35:49;;;;;;;6.07;3.17;;;16.00;99.90;;;;;;5087725;28;21410;-72
2023/07/23 06:38:16;;;;;;;3.90;1.83;;;15.80;99.90;;;;;;5085187;28;20032;-71
2023/07/23 06:40:50;;;;;;;3.67;2.53;;;15.80;99.90;;;;;;5079519;28;20020;-72
2023/07/23 06:43:19;;;;;;;3.50;1.35;;;15.70;99.90;;;;;;5075792;28;20045;-71
2023/07/23 06:45:46;;;;;;;10.32;0.80;;;15.70;99.90;;;;;;5072891;28;20112;-74
2023/07/23 06:48:14;;;;;;;0.45;0.45;;;15.90;99.90;;;;;;5080693;28;20082;-73
2023/07/23 06:50:40;;;;;;;5.10;2.50;;;16.00;99.90;;;;;;5075662;28;20033;-73
2023/07/23 06:53:06;;;;;;;4.43;2.60;;;15.90;99.90;;;;;;5071138;28;20035;-74
2023/07/23 06:55:55;;;;;;;4.30;2.35;;;15.90;99.90;;;;;;5075324;28;20021;-72
2023/07/23 06:58:21;;;;;;;1.38;1.25;;;15.80;99.90;;;;;;5072545;28;20434;-72
2023/07/23 07:00:46;;;;;;;1.88;1.33;;;15.90;99.90;;;;;;5076625;28;20065;-73
2023/07/23 07:03:12;;;;;;;3.05;2.20;;;15.80;99.90;;;;;;5073001;28;20075;-73
2023/07/23 07:05:38;;;;;;;1.83;0.52;;;15.70;99.90;;;;;;5075263;28;20070;-72
2023/07/23 07:08:04;;;;;;;3.30;2.10;;;15.80;99.90;;;;;;5075868;28;20025;-73
2023/07/23 07:10:29;;;;;;;6.13;2.95;;;15.90;99.90;;;;;;5075583;28;20099;-73
2023/07/23 07:12:55;;;;;;;1.52;1.40;;;15.90;99.90;;;;;;5078219;28;20024;-75
2023/07/23 07:15:21;;;;;;;1.10;0.82;;;15.90;99.90;;;;;;5080775;28;20153;-72
2023/07/23 07:17:47;;;;;;;3.50;2.40;;;15.90;99.90;;;;;;5074309;28;20388;-72
2023/07/23 07:20:12;;;;;;;6.10;2.92;;;16.00;99.90;;;;;;5081150;28;20107;-73
2023/07/23 07:22:38;;;;;;;8.90;3.83;;;15.90;99.90;;;;;;5078837;28;20028;-73
2023/07/23 07:25:04;;;;;;;5.30;1.48;;;15.90;99.90;;;;;;5081708;28;20028;-73
2023/07/23 07:27:30;;;;;;;8.20;3.33;;;16.00;99.90;;;;;;5076984;28;20044;-74
2023/07/23 07:29:55;;;;;;;4.13;2.25;;;16.00;99.90;;;;;;5082517;28;20065;-73
2023/07/23 07:32:21;;;;;;;6.03;2.55;;;15.90;99.90;;;;;;5089462;28;20047;-73
2023/07/23 07:34:47;;;;;;;4.18;3.00;;;16.00;99.90;;;;;;5077632;28;20558;-73
2023/07/23 07:37:12;;;;;;;13.60;3.72;;;16.00;99.90;;;;;;5075158;28;20033;-74
2023/07/23 07:39:38;;;;;;;3.92;2.50;;;16.00;99.90;;;;;;5077599;28;20069;-72
2023/07/23 07:42:04;;;;;;;0.52;0.52;;;16.00;99.90;;;;;;5079384;28;20023;-73
2023/07/23 07:44:30;;;;;;;5.97;3.53;;;16.20;99.90;;;;;;5081783;28;20047;-74
2023/07/23 07:46:56;;;;;;;5.05;1.90;;;16.20;99.90;;;;;;5081591;28;20028;-76
2023/07/23 07:49:21;;;;;;;2.92;1.58;;;16.30;99.90;;;;;;5074990;28;20395;-75
2023/07/23 07:51:47;;;;;;;5.90;3.25;;;16.30;99.90;;;;;;5087391;28;20030;-73
2023/07/23 07:54:14;;;;;;;3.47;1.65;;;16.20;99.90;;;;;;5081244;28;20035;-80
2023/07/23 07:56:40;;;;;;;6.45;1.35;;;16.20;99.90;;;;;;5081964;28;20024;-81
2023/07/23 07:59:06;;;;;;;6.25;1.65;;;16.40;99.90;;;;;;5078697;28;20032;-80
2023/07/23 08:01:32;;;;;;;3.08;1.55;;;16.50;99.90;;;;;;5080928;28;20420;-81
2023/07/23 08:03:58;;;;;;;3.80;1.77;;;16.40;99.90;;;;;;5081991;28;20111;-80
2023/07/23 08:06:24;;;;;;;3.05;2.45;;;16.40;99.90;;;;;;5066935;28;20028;-80
2023/07/23 08:08:52;;;;;;;3.30;2.05;;;16.30;99.90;;;;;;5080764;28;20035;-81
2023/07/23 08:11:20;;;;;;;3.85;2.20;;;16.30;99.90;;;;;;5080469;28;20024;-79
2023/07/23 08:13:46;;;;;;;0.45;0.45;;;16.30;99.90;;;;;;5081046;28;20031;-81
2023/07/23 08:16:15;;;;;;;3.78;1.55;;;16.50;99.90;;;;;;5077318;28;20146;-81
2023/07/23 08:18:41;;;;;;;2.55;2.15;;;16.50;99.90;;;;;;5083222;28;20028;-82
2023/07/23 08:21:08;;;;;;;7.57;0.82;;;16.60;99.90;;;;;;5081555;28;20280;-82
2023/07/23 08:23:35;;;;;;;2.50;1.77;;;16.70;99.90;;;;;;5084490;28;20036;-82
2023/07/23 08:26:03;;;;;;;5.70;1.38;;;16.70;99.90;;;;;;5079254;28;20021;-80
2023/07/23 08:28:33;;;;;;;7.85;3.17;;;16.70;99.90;;;;;;5082502;28;20220;-80
2023/07/23 08:31:00;;;;;;;9.63;4.88;;;16.70;99.90;;;;;;5085577;28;20078;-80
2023/07/23 08:33:30;;;;;;;2.45;1.50;;;16.60;99.90;;;;;;5083959;28;20043;-75
2023/07/23 08:35:57;;;;;;;6.80;3.35;;;16.70;99.90;;;;;;5080432;28;20515;-79
2023/07/23 08:38:24;;;;;;;6.93;3.92;;;16.60;99.90;;;;;;5079940;28;20107;-79
2023/07/23 08:40:58;;;;;;;1.95;1.40;;;16.50;99.90;;;;;;5073205;28;20031;-82
2023/07/23 08:43:54;;;;;;;3.70;2.05;;;16.50;99.90;;;;;;5082072;28;20042;-80
2023/07/23 08:46:23;;;;;;;1.50;1.08;;;16.60;99.90;;;;;;5080923;28;20032;-78
2023/07/23 08:48:56;;;;;;;3.00;1.63;;;16.70;99.90;;;;;;5075639;28;20040;-79
2023/07/23 08:51:24;;;;;;;4.22;2.67;;;16.70;99.90;;;;;;5075245;28;20323;-76
2023/07/23 08:53:51;;;;;;;7.30;3.28;;;16.60;99.90;;;;;;5072337;28;20021;-81
2023/07/23 08:56:18;;;;;;;1.25;0.75;;;16.60;99.90;;;;;;5080885;28;20065;-78
2023/07/23 08:58:45;;;;;;;3.42;2.53;;;16.70;99.90;;;;;;5082634;28;20008;-74
2023/07/23 09:01:14;;;;;;;2.30;1.85;;;16.70;99.90;;;;;;5077452;28;20158;-74
2023/07/23 09:03:40;;;;;;;1.60;1.40;;;16.80;99.90;;;;;;5076763;28;20549;-73
2023/07/23 09:06:06;;;;;;;1.58;1.08;;;16.90;99.90;;;;;;5076305;28;20024;-73
2023/07/23 09:08:33;;;;;;;4.30;2.88;;;17.00;99.90;;;;;;5078364;28;20044;-74
2023/07/23 09:10:59;;;;;;;3.10;1.65;;;17.00;99.90;;;;;;5072510;28;20031;-73
2023/07/23 09:13:33;;;;;;;2.70;1.10;;;17.00;99.90;;;;;;5072504;28;20032;-74
2023/07/23 09:15:59;;;;;;;12.75;6.18;;;17.20;99.90;;;;;;5072155;28;20021;-74
2023/07/23 09:18:25;;;;;;;8.30;1.65;;;17.20;99.90;;;;;;5073599;28;20020;-74
2023/07/23 09:20:51;;;;;;;1.27;0.45;;;17.20;99.90;;;;;;5072381;28;20154;-74
2023/07/23 09:23:17;;;;;;;3.05;1.55;;;17.30;99.90;;;;;;5073142;28;20565;-74
2023/07/23 09:25:44;;;;;;;7.68;2.72;;;17.20;99.90;;;;;;5073471;28;20071;-73
2023/07/23 09:28:21;;;;;;;3.20;1.73;;;17.10;99.90;;;;;;5073521;28;20127;-73
2023/07/23 09:30:47;;;;;;;2.17;1.25;;;17.10;99.90;;;;;;5079459;28;20077;-74
2023/07/23 09:33:13;;;;;;;2.60;2.10;;;17.20;99.90;;;;;;5073741;28;20039;-74
2023/07/23 09:35:41;;;;;;;1.23;0.93;;;17.20;99.90;;;;;;5073290;28;20021;-73
2023/07/23 09:38:12;;;;;;;3.60;2.08;;;17.30;99.90;;;;;;5069108;28;20035;-74
2023/07/23 09:40:40;;;;;;;10.27;1.63;;;17.50;99.90;;;;;;5073111;28;20060;-74
2023/07/23 09:43:07;;;;;;;7.32;3.05;;;17.50;99.90;;;;;;5073163;28;20017;-74
2023/07/23 09:45:37;;;;;;;0.85;0.28;;;17.50;99.90;;;;;;5072630;28;20051;-74
2023/07/23 09:48:03;;;;;;;2.40;1.92;;;17.60;99.90;;;;;;5073205;28;20048;-75
2023/07/23 09:50:30;;;;;;;1.33;1.23;;;17.80;99.90;;;;;;5072059;28;20020;-74
2023/07/23 09:52:56;;;;;;;2.55;1.10;;;17.90;99.90;;;;;;5081058;28;20069;-73
2023/07/23 09:55:22;;;;;;;1.58;1.30;;;18.00;99.90;;;;;;5074714;28;20025;-81
2023/07/23 09:57:50;;;;;;;4.20;2.50;;;18.10;99.90;;;;;;5075279;28;20028;-80
2023/07/23 10:00:17;;;;;;;0.40;0.40;;;18.00;99.90;;;;;;5084200;28;20149;-81
2023/07/23 10:02:45;;;;;;;1.02;0.85;;;18.30;99.90;;;;;;5079906;28;20032;-82
2023/07/23 10:05:15;;;;;;;12.70;2.83;;;18.50;99.90;;;;;;5073835;28;20044;-80
2023/07/23 10:07:42;;;;;;;2.30;1.60;;;18.40;99.90;;;;;;5087496;28;20024;-81
2023/07/23 10:10:09;;;;;;;7.28;1.33;;;18.40;99.90;;;;;;5088532;28;20495;-80
2023/07/23 10:12:37;;;;;;;3.10;2.22;;;18.60;99.90;;;;;;5085426;28;20090;-78
2023/07/23 10:15:03;;;;;;;12.77;2.58;;;18.70;99.90;;;;;;5081686;28;20024;-81
2023/07/23 10:17:29;;;;;;;4.20;1.88;;;18.60;99.90;;;;;;5090094;28;20111;-80
2023/07/23 10:19:56;;;;;;;6.00;3.10;;;18.70;99.90;;;;;;5087166;28;20085;-80
2023/07/23 10:22:23;;;;;;;6.15;2.97;;;18.60;99.90;;;;;;5086979;28;20020;-78
2023/07/23 10:24:52;;;;;;;3.00;1.48;;;18.60;99.90;;;;;;5082304;28;20025;-77
2023/07/23 10:27:19;;;;;;;6.57;2.35;;;18.80;99.90;;;;;;5076929;28;20032;-74
2023/07/23 10:30:21;;;;;;;6.15;2.03;;;19.00;99.90;;;;;;5089133;28;20046;-74
2023/07/23 10:33:10;;;;;;;3.50;1.95;;;19.10;99.90;;;;;;5082462;28;20097;-73
2023/07/23 10:35:58;;;;;;;0.88;0.70;;;19.30;99.90;;;;;;5082091;28;20063;-74
2023/07/23 10:38:27;;;;;;;1.25;0.63;;;19.40;99.90;;;;;;5082589;28;20349;-74
2023/07/23 10:40:54;;;;;;;5.47;1.17;;;19.70;99.90;;;;;;5075713;28;20025;-73
2023/07/23 10:43:20;;;;;;;2.75;2.30;;;19.70;99.90;;;;;;5088650;28;20024;-74
2023/07/23 10:46:07;;;;;;;8.52;1.92;;;19.70;99.90;;;;;;5084963;28;20028;-73
2023/07/23 10:48:42;;;;;;;3.92;1.90;;;19.60;99.90;;;;;;5080660;28;20043;-73
2023/07/23 10:51:13;;;;;;;3.30;1.50;;;19.60;99.90;;;;;;5085510;28;20592;-73
2023/07/23 10:53:41;;;;;;;1.10;0.77;;;19.80;99.90;;;;;;5078321;28;20051;-75
2023/07/23 10:56:32;;;;;;;3.42;1.23;;;19.70;99.90;;;;;;5078884;28;20012;-74
2023/07/23 10:59:05;;;;;;;2.53;1.30;;;20.00;99.90;;;;;;5075755;28;20127;-76
2023/07/23 11:01:36;;;;;;;1.52;1.25;;;20.00;99.90;;;;;;5080848;28;20028;-75
2023/07/23 11:04:11;;;;;;;0.15;0.13;;;19.90;99.90;;;;;;5078913;28;20118;-80
2023/07/23 11:06:41;;;;;;;2.05;1.42;;;19.90;99.90;;;;;;5072521;28;20028;-81
2023/07/23 11:09:13;;;;;;;7.93;2.03;;;20.20;99.90;;;;;;5074137;28;20032;-80
2023/07/23 11:11:41;;;;;;;4.05;2.25;;;20.30;99.90;;;;;;5073363;28;20020;-81
2023/07/23 11:14:24;;;;;;;15.50;3.88;;;20.30;99.90;;;;;;5081199;28;20028;-75
2023/07/23 11:16:52;;;;;;;3.83;1.58;;;20.50;99.90;;;;;;5075839;28;20036;-81
2023/07/23 11:19:19;;;;;;;0.40;0.40;;;21.00;99.90;;;;;;5071632;28;20059;-81
2023/07/23 11:21:46;;;;;;;2.22;1.67;;;21.30;99.90;;;;;;5080147;28;20035;-81
2023/07/23 11:24:12;;;;;;;1.20;1.08;;;21.50;99.90;;;;;;5085399;28;20114;-79
2023/07/23 11:26:39;;;;;;;0.85;0.57;;;21.80;99.90;;;;;;5080392;28;20020;-81
2023/07/23 11:29:05;;;;;;;3.65;1.40;;;21.50;99.90;;;;;;5077645;28;20369;-82
2023/07/23 11:31:31;;;;;;;0.50;0.47;;;21.10;99.90;;;;;;5082477;28;20023;-81
2023/07/23 11:33:58;;;;;;;1.10;1.00;;;20.90;99.90;;;;;;5095073;28;20372;-81
2023/07/23 11:36:24;;;;;;;1.85;1.25;;;21.10;99.90;;;;;;5095424;28;20108;-81
2023/07/23 11:39:00;;;;;;;1.25;0.80;;;21.20;99.90;;;;;;5095256;28;20104;-81
2023/07/23 11:41:28;;;;;;;0.45;0.45;;;21.10;99.90;;;;;;5094768;28;20036;-79
2023/07/23 11:43:55;;;;;;;1.10;0.73;;;20.90;99.90;;;;;;5094725;28;20070;-80
2023/07/23 11:46:21;;;;;;;2.15;1.25;;;20.60;99.90;;;;;;5088879;28;20067;-81
2023/07/23 11:48:46;;;;;;;5.47;2.22;;;20.50;99.90;;;;;;5090274;28;20072;-81
2023/07/23 11:51:12;;;;;;;2.42;1.88;;;20.50;99.90;;;;;;5094808;28;20035;-81
2023/07/23 11:53:38;;;;;;;0.35;0.35;;;20.30;99.90;;;;;;5094494;28;20093;-80
2023/07/23 11:56:08;;;;;;;0.63;0.57;;;20.30;99.90;;;;;;5094903;28;20107;-81
2023/07/23 11:58:35;;;;;;;0.45;0.45;;;20.40;99.90;;;;;;5094784;28;20032;-80
2023/07/23 12:01:03;;;;;;;0.75;0.75;;;20.60;99.90;;;;;;5094556;28;20036;-81
2023/07/23 12:03:32;;;;;;;1.52;1.25;;;20.70;99.90;;;;;;5094359;28;20055;-81
2023/07/23 12:05:59;;;;;;;1.88;1.42;;;20.50;99.90;;;;;;5087809;28;20028;-80
2023/07/23 12:08:29;;;;;;;0.55;0.52;;;20.30;99.90;;;;;;5093200;28;20093;-79
2023/07/23 12:10:56;;;;;;;1.63;0.82;;;20.60;99.90;;;;;;5087727;28;20028;-80
2023/07/23 12:13:25;;;;;;;2.97;1.23;;;21.00;99.90;;;;;;5085412;28;20016;-81
2023/07/23 12:15:54;;;;;;;0.25;0.25;;;21.30;99.90;;;;;;5088783;28;20028;-80
2023/07/23 12:18:25;;;;;;;1.17;1.00;;;21.50;99.90;;;;;;5074723;28;20063;-80
2023/07/23 12:20:57;;;;;;;1.77;1.67;;;21.40;99.90;;;;;;5091056;28;20027;-77
2023/07/23 12:23:23;;;;;;;6.35;2.08;;;21.60;99.90;;;;;;5081034;28;20036;-74
2023/07/23 12:25:49;;;;;;;0.60;0.50;;;21.60;99.90;;;;;;5081538;28;20031;-73
2023/07/23 12:28:14;;;;;;;2.53;1.25;;;21.90;99.90;;;;;;5079069;28;20073;-74
2023/07/23 12:30:40;;;;;;;2.55;0.88;;;21.80;99.90;;;;;;5087404;28;20051;-75
2023/07/23 12:33:06;;;;;;;0.20;0.15;;;21.70;99.90;;;;;;5082351;28;20033;-75
2023/07/23 12:35:31;;;;;;;0.73;0.73;;;21.70;99.90;;;;;;5081054;28;20407;-77
2023/07/23 12:37:57;;;;;;;0.55;0.52;;;21.70;99.90;;;;;;5083366;28;20020;-74
2023/07/23 12:40:23;;;;;;;12.35;1.67;;;21.50;99.90;;;;;;5083896;28;20024;-74
2023/07/23 12:42:48;;;;;;;0.60;0.60;;;21.40;99.90;;;;;;5074981;28;20353;-73
2023/07/23 12:45:14;;;;;;;0.17;0.17;;;21.40;99.90;;;;;;5086049;28;20483;-74
2023/07/23 12:47:40;;;;;;;1.63;1.08;;;21.60;99.90;;;;;;5094620;28;20052;-74